首页
METAR-TAF:

METAR-TAF

机场 :

鲁珀特王子港, 不列颠哥伦比亚, 加拿大

纬度: 54-18N, 经度: 130-26W, 海拔: 34米

当前天气观测

该预报发布于1小时和0分钟前的21:00 UTC
风速9节,风向西
温度 15°C
湿度 77%
气压 1015 hPa
能見度: 14.5公里
天空无云

METAR: CYPR 262100Z AUTO 28009KT 9SM CLR 15/11 A2997 RMK SLP150

时间: 15:00 (22:00 UTC)

预报

该预报发布于3小时和22分钟前的18:38 UTC
预报有效从26日的 19点(UTC)到 27日的 07点(UTC)
风速6节,风向西
能見度: 10公里
天空无云

TAF: CYPR 261838Z 2619/2707 28006KT P6SM SKC RMK FCST BASED ON AUTO OBS. NXT FCST BY 270100Z

超过4000个机场的气象观测和天气预报(METAR&TAF报告)。

可查询的气象台以黄色和红色小点在地图上表示。

将鼠标移到小点上方,可查看气象台名称。

然后点击查看天气观测和预报。

如需切换地图:点击带黑十字的绿色按钮放大地图;点击带横线的绿色按钮缩小地图;或者点击绿色箭头查看邻近地区的地图。


METAR-TAF: